sensor_id;sensor_type;location;lat;lon;timestamp;pressure;altitude;pressure_sealevel;temperature;humidity
35151;BME280;55720;51.972;4.624;2023-04-06T00:01:29;101595.38;;;4.48;100.00
35151;BME280;55720;51.972;4.624;2023-04-06T00:03:54;101615.47;;;4.42;100.00
35151;BME280;55720;51.972;4.624;2023-04-06T00:06:20;101644.31;;;4.43;100.00
35151;BME280;55720;51.972;4.624;2023-04-06T00:08:45;101648.94;;;4.42;100.00
35151;BME280;55720;51.972;4.624;2023-04-06T00:11:11;101659.25;;;4.45;100.00
35151;BME280;55720;51.972;4.624;2023-04-06T00:13:37;101665.81;;;4.44;100.00
35151;BME280;55720;51.972;4.624;2023-04-06T00:16:02;101682.09;;;4.34;100.00
35151;BME280;55720;51.972;4.624;2023-04-06T00:18:30;101680.19;;;4.50;100.00
35151;BME280;55720;51.972;4.624;2023-04-06T00:20:55;101695.13;;;4.27;100.00
35151;BME280;55720;51.972;4.624;2023-04-06T00:23:21;101687.28;;;4.51;100.00
35151;BME280;55720;51.972;4.624;2023-04-06T00:25:46;101694.91;;;4.44;100.00
35151;BME280;55720;51.972;4.624;2023-04-06T00:28:12;101700.84;;;4.36;100.00
35151;BME280;55720;51.972;4.624;2023-04-06T00:30:37;101703.59;;;4.51;100.00
35151;BME280;55720;51.972;4.624;2023-04-06T00:33:03;101702.78;;;4.51;100.00
35151;BME280;55720;51.972;4.624;2023-04-06T00:35:28;101706.81;;;4.38;100.00
35151;BME280;55720;51.972;4.624;2023-04-06T00:37:54;101703.00;;;4.24;100.00
35151;BME280;55720;51.972;4.624;2023-04-06T00:40:19;101695.09;;;4.17;100.00
35151;BME280;55720;51.972;4.624;2023-04-06T00:42:45;101695.66;;;4.24;100.00
35151;BME280;55720;51.972;4.624;2023-04-06T00:45:10;101691.88;;;4.15;100.00
35151;BME280;55720;51.972;4.624;2023-04-06T00:47:36;101690.78;;;4.21;100.00
35151;BME280;55720;51.972;4.624;2023-04-06T00:50:01;101687.81;;;4.23;100.00
35151;BME280;55720;51.972;4.624;2023-04-06T00:52:27;101690.75;;;4.11;100.00
35151;BME280;55720;51.972;4.624;2023-04-06T00:54:53;101677.44;;;4.10;100.00
35151;BME280;55720;51.972;4.624;2023-04-06T00:57:18;101683.66;;;4.00;100.00
35151;BME280;55720;51.972;4.624;2023-04-06T00:59:44;101684.19;;;3.87;100.00
35151;BME280;55720;51.972;4.624;2023-04-06T01:02:10;101674.94;;;3.88;100.00
35151;BME280;55720;51.972;4.624;2023-04-06T01:04:35;101674.72;;;4.10;100.00
35151;BME280;55720;51.972;4.624;2023-04-06T01:07:01;101665.22;;;4.07;100.00
35151;BME280;55720;51.972;4.624;2023-04-06T01:09:28;101660.84;;;4.16;100.00
35151;BME280;55720;51.972;4.624;2023-04-06T01:11:55;101661.69;;;4.17;100.00
35151;BME280;55720;51.972;4.624;2023-04-06T01:14:21;101665.47;;;4.06;100.00
35151;BME280;55720;51.972;4.624;2023-04-06T01:16:47;101661.94;;;4.10;100.00
35151;BME280;55720;51.972;4.624;2023-04-06T01:19:12;101658.94;;;3.96;100.00
35151;BME280;55720;51.972;4.624;2023-04-06T01:21:39;101652.38;;;3.82;100.00
35151;BME280;55720;51.972;4.624;2023-04-06T01:24:05;101650.72;;;3.76;100.00
35151;BME280;55720;51.972;4.624;2023-04-06T01:26:31;101635.31;;;3.97;100.00
35151;BME280;55720;51.972;4.624;2023-04-06T01:28:57;101642.06;;;3.94;100.00
35151;BME280;55720;51.972;4.624;2023-04-06T01:31:23;101639.34;;;3.94;100.00
35151;BME280;55720;51.972;4.624;2023-04-06T01:33:48;101633.94;;;3.89;100.00
35151;BME280;55720;51.972;4.624;2023-04-06T01:36:15;101626.31;;;3.96;100.00
35151;BME280;55720;51.972;4.624;2023-04-06T01:38:40;101629.84;;;3.92;100.00
35151;BME280;55720;51.972;4.624;2023-04-06T01:41:07;101628.47;;;3.84;100.00
35151;BME280;55720;51.972;4.624;2023-04-06T01:43:33;101626.53;;;3.80;100.00
35151;BME280;55720;51.972;4.624;2023-04-06T01:45:58;101619.19;;;3.70;100.00
35151;BME280;55720;51.972;4.624;2023-04-06T01:48:25;101610.00;;;3.81;100.00
35151;BME280;55720;51.972;4.624;2023-04-06T01:50:51;101609.47;;;4.00;100.00
35151;BME280;55720;51.972;4.624;2023-04-06T01:53:16;101609.50;;;4.05;100.00
35151;BME280;55720;51.972;4.624;2023-04-06T01:55:41;101603.50;;;4.13;100.00
35151;BME280;55720;51.972;4.624;2023-04-06T01:58:07;101611.94;;;3.96;100.00
35151;BME280;55720;51.972;4.624;2023-04-06T02:00:32;101609.50;;;4.15;100.00
35151;BME280;55720;51.972;4.624;2023-04-06T02:02:58;101605.94;;;3.99;100.00
35151;BME280;55720;51.972;4.624;2023-04-06T02:05:23;101608.97;;;4.08;100.00
35151;BME280;55720;51.972;4.624;2023-04-06T02:07:48;101605.69;;;4.11;100.00
35151;BME280;55720;51.972;4.624;2023-04-06T02:10:14;101598.34;;;4.01;100.00
35151;BME280;55720;51.972;4.624;2023-04-06T02:12:40;101594.56;;;4.12;100.00
35151;BME280;55720;51.972;4.624;2023-04-06T02:15:06;101593.19;;;4.10;100.00
35151;BME280;55720;51.972;4.624;2023-04-06T02:17:31;101582.88;;;4.12;100.00
35151;BME280;55720;51.972;4.624;2023-04-06T02:19:57;101582.03;;;4.16;100.00
35151;BME280;55720;51.972;4.624;2023-04-06T02:22:23;101579.34;;;4.21;100.00
35151;BME280;55720;51.972;4.624;2023-04-06T02:24:48;101577.41;;;4.17;100.00
35151;BME280;55720;51.972;4.624;2023-04-06T02:27:14;101576.88;;;4.20;100.00
35151;BME280;55720;51.972;4.624;2023-04-06T02:29:39;101572.81;;;4.12;100.00
35151;BME280;55720;51.972;4.624;2023-04-06T02:32:05;101576.06;;;4.14;100.00
35151;BME280;55720;51.972;4.624;2023-04-06T02:34:30;101566.84;;;4.15;100.00
35151;BME280;55720;51.972;4.624;2023-04-06T02:36:56;101571.72;;;4.28;100.00
35151;BME280;55720;51.972;4.624;2023-04-06T02:39:21;101572.53;;;4.24;100.00
35151;BME280;55720;51.972;4.624;2023-04-06T02:41:46;101570.06;;;4.27;100.00
35151;BME280;55720;51.972;4.624;2023-04-06T02:44:12;101567.66;;;4.41;100.00
35151;BME280;55720;51.972;4.624;2023-04-06T02:46:38;101569.00;;;4.43;100.00
35151;BME280;55720;51.972;4.624;2023-04-06T02:49:03;101570.63;;;4.39;100.00
35151;BME280;55720;51.972;4.624;2023-04-06T02:51:28;101558.38;;;4.42;100.00
35151;BME280;55720;51.972;4.624;2023-04-06T02:53:54;101564.38;;;4.44;100.00
35151;BME280;55720;51.972;4.624;2023-04-06T02:56:19;101565.44;;;4.38;100.00
35151;BME280;55720;51.972;4.624;2023-04-06T02:58:46;101560.03;;;4.33;100.00
35151;BME280;55720;51.972;4.624;2023-04-06T03:01:12;101554.34;;;4.29;100.00
35151;BME280;55720;51.972;4.624;2023-04-06T03:03:37;101548.06;;;4.24;100.00
35151;BME280;55720;51.972;4.624;2023-04-06T03:06:03;101549.97;;;4.28;100.00
35151;BME280;55720;51.972;4.624;2023-04-06T03:08:28;101554.88;;;4.26;100.00
35151;BME280;55720;51.972;4.624;2023-04-06T03:10:54;101545.88;;;4.36;100.00
35151;BME280;55720;51.972;4.624;2023-04-06T03:13:20;101538.81;;;4.35;100.00
35151;BME280;55720;51.972;4.624;2023-04-06T03:15:46;101528.78;;;4.30;100.00
35151;BME280;55720;51.972;4.624;2023-04-06T03:18:11;101529.31;;;4.32;100.00
35151;BME280;55720;51.972;4.624;2023-04-06T03:20:37;101525.78;;;4.27;100.00
35151;BME280;55720;51.972;4.624;2023-04-06T03:23:02;101525.50;;;4.23;100.00
35151;BME280;55720;51.972;4.624;2023-04-06T03:25:27;101516.56;;;4.23;100.00
35151;BME280;55720;51.972;4.624;2023-04-06T03:27:53;101511.13;;;4.23;100.00
35151;BME280;55720;51.972;4.624;2023-04-06T03:30:19;101504.03;;;4.22;100.00
35151;BME280;55720;51.972;4.624;2023-04-06T03:32:44;101506.47;;;4.28;100.00
35151;BME280;55720;51.972;4.624;2023-04-06T03:35:10;101508.66;;;4.21;100.00
35151;BME280;55720;51.972;4.624;2023-04-06T03:37:35;101504.31;;;4.20;100.00
35151;BME280;55720;51.972;4.624;2023-04-06T03:40:01;101500.25;;;4.18;100.00
35151;BME280;55720;51.972;4.624;2023-04-06T03:42:27;101496.44;;;4.19;100.00
35151;BME280;55720;51.972;4.624;2023-04-06T03:44:52;101504.88;;;4.22;100.00
35151;BME280;55720;51.972;4.624;2023-04-06T03:47:18;101506.22;;;4.25;100.00
35151;BME280;55720;51.972;4.624;2023-04-06T03:49:43;101505.94;;;4.21;100.00
35151;BME280;55720;51.972;4.624;2023-04-06T03:52:09;101504.31;;;4.25;100.00
35151;BME280;55720;51.972;4.624;2023-04-06T03:54:34;101504.34;;;4.15;100.00
35151;BME280;55720;51.972;4.624;2023-04-06T03:57:00;101501.31;;;4.22;100.00
35151;BME280;55720;51.972;4.624;2023-04-06T03:59:25;101497.25;;;4.14;100.00
35151;BME280;55720;51.972;4.624;2023-04-06T04:01:51;101495.63;;;4.18;100.00
35151;BME280;55720;51.972;4.624;2023-04-06T04:04:16;101492.34;;;4.16;100.00
35151;BME280;55720;51.972;4.624;2023-04-06T04:06:42;101493.19;;;4.12;100.00
35151;BME280;55720;51.972;4.624;2023-04-06T05:08:36;101498.06;;;5.09;100.00
35151;BME280;55720;51.972;4.624;2023-04-06T05:11:01;101499.66;;;5.15;100.00
35151;BME280;55720;51.972;4.624;2023-04-06T05:13:27;101501.03;;;5.13;100.00
35151;BME280;55720;51.972;4.624;2023-04-06T05:15:52;101497.19;;;5.19;100.00
35151;BME280;55720;51.972;4.624;2023-04-06T05:18:18;101499.59;;;5.25;100.00
35151;BME280;55720;51.972;4.624;2023-04-06T05:23:26;101507.25;;;5.23;100.00
35151;BME280;55720;51.972;4.624;2023-04-06T05:25:52;101514.03;;;5.26;100.00
35151;BME280;55720;51.972;4.624;2023-04-06T05:28:17;101511.81;;;5.33;100.00
35151;BME280;55720;51.972;4.624;2023-04-06T05:30:44;101511.78;;;5.38;100.00
35151;BME280;55720;51.972;4.624;2023-04-06T05:33:11;101524.03;;;5.40;100.00
35151;BME280;55720;51.972;4.624;2023-04-06T05:35:37;101521.28;;;5.45;100.00
35151;BME280;55720;51.972;4.624;2023-04-06T05:38:02;101523.41;;;5.54;100.00
35151;BME280;55720;51.972;4.624;2023-04-06T05:40:28;101524.50;;;5.53;100.00
35151;BME280;55720;51.972;4.624;2023-04-06T05:42:54;101527.75;;;5.55;100.00
35151;BME280;55720;51.972;4.624;2023-04-06T05:45:21;101521.16;;;5.61;100.00
35151;BME280;55720;51.972;4.624;2023-04-06T05:47:50;101536.97;;;5.64;100.00
35151;BME280;55720;51.972;4.624;2023-04-06T05:50:15;101533.09;;;5.70;100.00
35151;BME280;55720;51.972;4.624;2023-04-06T05:52:41;101528.72;;;5.74;100.00
35151;BME280;55720;51.972;4.624;2023-04-06T05:55:11;101531.19;;;5.70;100.00
35151;BME280;55720;51.972;4.624;2023-04-06T05:57:36;101531.19;;;5.70;100.00
35151;BME280;55720;51.972;4.624;2023-04-06T06:00:02;101533.09;;;5.70;100.00
35151;BME280;55720;51.972;4.624;2023-04-06T06:02:30;101533.63;;;5.72;100.00
35151;BME280;55720;51.972;4.624;2023-04-06T06:04:56;101527.06;;;5.78;100.00
35151;BME280;55720;51.972;4.624;2023-04-06T06:07:23;101522.44;;;5.78;100.00
35151;BME280;55720;51.972;4.624;2023-04-06T06:09:49;101520.47;;;5.84;100.00
35151;BME280;55720;51.972;4.624;2023-04-06T06:12:14;101520.75;;;5.87;100.00
35151;BME280;55720;51.972;4.624;2023-04-06T06:14:40;101516.38;;;5.86;100.00
35151;BME280;55720;51.972;4.624;2023-04-06T06:17:06;101513.13;;;5.89;100.00
35151;BME280;55720;51.972;4.624;2023-04-06T06:19:31;101521.53;;;5.93;100.00
35151;BME280;55720;51.972;4.624;2023-04-06T06:21:56;101508.91;;;6.02;100.00
35151;BME280;55720;51.972;4.624;2023-04-06T06:24:25;101507.75;;;6.08;100.00
35151;BME280;55720;51.972;4.624;2023-04-06T06:26:50;101509.13;;;6.11;100.00
35151;BME280;55720;51.972;4.624;2023-04-06T06:29:16;101516.97;;;6.17;100.00
35151;BME280;55720;51.972;4.624;2023-04-06T06:31:41;101515.00;;;6.23;100.00
35151;BME280;55720;51.972;4.624;2023-04-06T06:34:07;101519.59;;;6.27;100.00
35151;BME280;55720;51.972;4.624;2023-04-06T06:36:34;101521.97;;;6.34;100.00
35151;BME280;55720;51.972;4.624;2023-04-06T06:39:01;101525.47;;;6.39;100.00
35151;BME280;55720;51.972;4.624;2023-04-06T06:41:31;101524.56;;;6.49;100.00
35151;BME280;55720;51.972;4.624;2023-04-06T06:43:58;101532.13;;;6.57;100.00
35151;BME280;55720;51.972;4.624;2023-04-06T06:46:25;101530.09;;;6.68;100.00
35151;BME280;55720;51.972;4.624;2023-04-06T06:48:53;101524.25;;;6.79;100.00
35151;BME280;55720;51.972;4.624;2023-04-06T06:51:19;101529.00;;;6.92;100.00
35151;BME280;55720;51.972;4.624;2023-04-06T06:53:49;101528.81;;;7.08;100.00
35151;BME280;55720;51.972;4.624;2023-04-06T06:56:15;101525.81;;;7.28;100.00
35151;BME280;55720;51.972;4.624;2023-04-06T06:58:40;101537.41;;;7.20;100.00
35151;BME280;55720;51.972;4.624;2023-04-06T07:01:07;101543.84;;;7.48;100.00
35151;BME280;55720;51.972;4.624;2023-04-06T07:03:37;101549.75;;;7.55;100.00
35151;BME280;55720;51.972;4.624;2023-04-06T07:06:02;101555.66;;;7.62;100.00
35151;BME280;55720;51.972;4.624;2023-04-06T07:08:28;101565.25;;;7.78;100.00
35151;BME280;55720;51.972;4.624;2023-04-06T07:10:54;101575.03;;;7.65;100.00
35151;BME280;55720;51.972;4.624;2023-04-06T07:13:21;101576.78;;;7.56;100.00
35151;BME280;55720;51.972;4.624;2023-04-06T07:15:53;101583.50;;;7.64;100.00
35151;BME280;55720;51.972;4.624;2023-04-06T07:18:19;101577.16;;;7.87;100.00
35151;BME280;55720;51.972;4.624;2023-04-06T07:20:45;101582.25;;;7.93;100.00
35151;BME280;55720;51.972;4.624;2023-04-06T07:23:10;101583.38;;;7.92;100.00
35151;BME280;55720;51.972;4.624;2023-04-06T07:25:36;101580.72;;;7.87;100.00
35151;BME280;55720;51.972;4.624;2023-04-06T07:28:03;101573.84;;;7.90;100.00
35151;BME280;55720;51.972;4.624;2023-04-06T07:30:29;101583.00;;;7.80;100.00
35151;BME280;55720;51.972;4.624;2023-04-06T07:32:55;101570.63;;;8.20;100.00
35151;BME280;55720;51.972;4.624;2023-04-06T07:35:25;101570.72;;;8.15;100.00
35151;BME280;55720;51.972;4.624;2023-04-06T07:37:52;101578.09;;;8.33;100.00
35151;BME280;55720;51.972;4.624;2023-04-06T07:40:17;101577.91;;;8.25;100.00
35151;BME280;55720;51.972;4.624;2023-04-06T07:42:43;101583.63;;;8.28;100.00
35151;BME280;55720;51.972;4.624;2023-04-06T07:45:09;101584.66;;;8.32;100.00
35151;BME280;55720;51.972;4.624;2023-04-06T07:47:34;101588.97;;;8.38;100.00
35151;BME280;55720;51.972;4.624;2023-04-06T07:50:00;101588.44;;;8.36;100.00
35151;BME280;55720;51.972;4.624;2023-04-06T07:52:25;101585.53;;;8.47;100.00
35151;BME280;55720;51.972;4.624;2023-04-06T07:54:51;101588.00;;;8.29;100.00
35151;BME280;55720;51.972;4.624;2023-04-06T07:57:16;101589.34;;;8.78;100.00
35151;BME280;55720;51.972;4.624;2023-04-06T07:59:42;101585.13;;;8.99;100.00
35151;BME280;55720;51.972;4.624;2023-04-06T08:02:07;101579.97;;;9.11;100.00
35151;BME280;55720;51.972;4.624;2023-04-06T08:04:33;101581.16;;;9.19;100.00
35151;BME280;55720;51.972;4.624;2023-04-06T08:06:58;101586.31;;;8.79;100.00
35151;BME280;55720;51.972;4.624;2023-04-06T08:09:24;101584.56;;;8.70;100.00
35151;BME280;55720;51.972;4.624;2023-04-06T08:11:49;101574.97;;;8.86;100.00
35151;BME280;55720;51.972;4.624;2023-04-06T08:14:17;101582.16;;;8.82;100.00
35151;BME280;55720;51.972;4.624;2023-04-06T08:16:43;101591.97;;;8.83;100.00
35151;BME280;55720;51.972;4.624;2023-04-06T08:19:09;101572.84;;;8.97;100.00
35151;BME280;55720;51.972;4.624;2023-04-06T08:21:36;101572.41;;;8.76;100.00
35151;BME280;55720;51.972;4.624;2023-04-06T08:24:02;101566.22;;;8.57;100.00
35151;BME280;55720;51.972;4.624;2023-04-06T08:26:29;101552.22;;;8.58;100.00
35151;BME280;55720;51.972;4.624;2023-04-06T08:28:56;101540.78;;;8.70;100.00
35151;BME280;55720;51.972;4.624;2023-04-06T08:31:22;101536.25;;;8.47;100.00
35151;BME280;55720;51.972;4.624;2023-04-06T08:33:48;101523.44;;;8.28;100.00
35151;BME280;55720;51.972;4.624;2023-04-06T08:36:15;101514.91;;;8.49;100.00
35151;BME280;55720;51.972;4.624;2023-04-06T08:38:42;101505.88;;;8.62;100.00
35151;BME280;55720;51.972;4.624;2023-04-06T08:41:11;101496.06;;;8.88;100.00
35151;BME280;55720;51.972;4.624;2023-04-06T08:43:47;101498.28;;;8.59;100.00
35151;BME280;55720;51.972;4.624;2023-04-06T08:46:13;101492.81;;;8.72;100.00
35151;BME280;55720;51.972;4.624;2023-04-06T08:48:40;101502.75;;;8.82;100.00
35151;BME280;55720;51.972;4.624;2023-04-06T08:51:08;101512.19;;;8.89;100.00
35151;BME280;55720;51.972;4.624;2023-04-06T08:53:34;101517.25;;;8.96;100.00
35151;BME280;55720;51.972;4.624;2023-04-06T08:56:00;101518.84;;;8.97;100.00
35151;BME280;55720;51.972;4.624;2023-04-06T08:58:28;101529.84;;;9.11;100.00
35151;BME280;55720;51.972;4.624;2023-04-06T09:00:54;101534.66;;;9.27;100.00
35151;BME280;55720;51.972;4.624;2023-04-06T09:03:21;101545.09;;;9.53;100.00
35151;BME280;55720;51.972;4.624;2023-04-06T09:05:47;101543.00;;;9.09;100.00
35151;BME280;55720;51.972;4.624;2023-04-06T09:08:13;101542.59;;;9.02;100.00
35151;BME280;55720;51.972;4.624;2023-04-06T09:10:41;101548.59;;;9.17;100.00
35151;BME280;55720;51.972;4.624;2023-04-06T09:13:08;101548.28;;;9.32;100.00
35151;BME280;55720;51.972;4.624;2023-04-06T09:15:34;101547.03;;;9.38;100.00
35151;BME280;55720;51.972;4.624;2023-04-06T09:18:00;101539.53;;;9.30;100.00
35151;BME280;55720;51.972;4.624;2023-04-06T09:20:26;101534.72;;;9.00;100.00
35151;BME280;55720;51.972;4.624;2023-04-06T09:22:54;101529.31;;;8.68;100.00
35151;BME280;55720;51.972;4.624;2023-04-06T09:25:24;101506.28;;;9.10;100.00
35151;BME280;55720;51.972;4.624;2023-04-06T09:28:05;101508.38;;;9.26;100.00
35151;BME280;55720;51.972;4.624;2023-04-06T09:30:32;101510.25;;;8.49;100.00
35151;BME280;55720;51.972;4.624;2023-04-06T09:32:58;101493.88;;;8.30;100.00
35151;BME280;55720;51.972;4.624;2023-04-06T09:35:24;101480.63;;;8.51;100.00
35151;BME280;55720;51.972;4.624;2023-04-06T09:37:52;101470.28;;;8.75;100.00
35151;BME280;55720;51.972;4.624;2023-04-06T09:40:21;101463.41;;;8.78;100.00
35151;BME280;55720;51.972;4.624;2023-04-06T09:42:48;101460.84;;;8.95;100.00
35151;BME280;55720;51.972;4.624;2023-04-06T09:45:15;101452.94;;;8.80;100.00
35151;BME280;55720;51.972;4.624;2023-04-06T09:47:43;101442.41;;;9.01;100.00
35151;BME280;55720;51.972;4.624;2023-04-06T09:50:12;101442.81;;;8.67;100.00
35151;BME280;55720;51.972;4.624;2023-04-06T09:52:48;101448.72;;;8.14;100.00
35151;BME280;55720;51.972;4.624;2023-04-06T09:55:22;101431.13;;;8.20;100.00
35151;BME280;55720;51.972;4.624;2023-04-06T09:57:55;101419.78;;;8.13;100.00
35151;BME280;55720;51.972;4.624;2023-04-06T10:00:23;101381.56;;;8.22;100.00
35151;BME280;55720;51.972;4.624;2023-04-06T10:02:51;101367.13;;;8.49;100.00
35151;BME280;55720;51.972;4.624;2023-04-06T10:08:09;101342.88;;;8.28;100.00
35151;BME280;55720;51.972;4.624;2023-04-06T10:10:35;101317.22;;;8.11;100.00
35151;BME280;55720;51.972;4.624;2023-04-06T10:16:16;101264.34;;;8.15;100.00
35151;BME280;55720;51.972;4.624;2023-04-06T10:19:06;101225.25;;;8.28;100.00
35151;BME280;55720;51.972;4.624;2023-04-06T10:21:35;101195.16;;;8.15;100.00
35151;BME280;55720;51.972;4.624;2023-04-06T10:24:07;101168.09;;;8.27;100.00
35151;BME280;55720;51.972;4.624;2023-04-06T10:26:35;101136.31;;;8.17;100.00
35151;BME280;55720;51.972;4.624;2023-04-06T10:29:03;101110.44;;;8.01;100.00
35151;BME280;55720;51.972;4.624;2023-04-06T10:31:29;101084.44;;;7.90;100.00
35151;BME280;55720;51.972;4.624;2023-04-06T10:34:01;101046.16;;;7.90;100.00
35151;BME280;55720;51.972;4.624;2023-04-06T10:36:32;100988.19;;;8.02;100.00
35151;BME280;55720;51.972;4.624;2023-04-06T10:39:03;100959.97;;;7.92;100.00
35151;BME280;55720;51.972;4.624;2023-04-06T10:41:33;100933.19;;;8.03;100.00
35151;BME280;55720;51.972;4.624;2023-04-06T10:43:59;100892.91;;;8.17;100.00
35151;BME280;55720;51.972;4.624;2023-04-06T10:46:28;100859.41;;;8.12;100.00
35151;BME280;55720;51.972;4.624;2023-04-06T10:48:54;100845.16;;;7.92;100.00
35151;BME280;55720;51.972;4.624;2023-04-06T10:51:26;100815.91;;;7.93;100.00
35151;BME280;55720;51.972;4.624;2023-04-06T10:53:56;100786.84;;;8.14;100.00
35151;BME280;55720;51.972;4.624;2023-04-06T10:56:24;100753.94;;;8.28;100.00
35151;BME280;55720;51.972;4.624;2023-04-06T10:58:54;100737.28;;;8.07;100.00
35151;BME280;55720;51.972;4.624;2023-04-06T11:01:24;100734.16;;;7.83;100.00
35151;BME280;55720;51.972;4.624;2023-04-06T11:03:56;100696.28;;;7.99;100.00
35151;BME280;55720;51.972;4.624;2023-04-06T11:06:29;100677.81;;;8.13;100.00
35151;BME280;55720;51.972;4.624;2023-04-06T11:08:57;100665.25;;;8.12;100.00
35151;BME280;55720;51.972;4.624;2023-04-06T11:11:24;100656.84;;;7.91;100.00
35151;BME280;55720;51.972;4.624;2023-04-06T11:16:25;100603.94;;;8.04;100.00
35151;BME280;55720;51.972;4.624;2023-04-06T11:18:59;100597.50;;;7.83;100.00
35151;BME280;55720;51.972;4.624;2023-04-06T11:21:36;100580.63;;;7.98;100.00
35151;BME280;55720;51.972;4.624;2023-04-06T11:24:12;100583.53;;;7.84;100.00
35151;BME280;55720;51.972;4.624;2023-04-06T11:26:46;100562.75;;;7.75;100.00
35151;BME280;55720;51.972;4.624;2023-04-06T11:29:15;100541.09;;;7.96;100.00
35151;BME280;55720;51.972;4.624;2023-04-06T11:31:44;100655.50;;;7.71;100.00
35151;BME280;55720;51.972;4.624;2023-04-06T11:34:16;100695.53;;;7.67;100.00
35151;BME280;55720;51.972;4.624;2023-04-06T11:36:43;100688.78;;;7.65;100.00
35151;BME280;55720;51.972;4.624;2023-04-06T11:39:10;100669.34;;;7.66;100.00
35151;BME280;55720;51.972;4.624;2023-04-06T11:41:36;100663.38;;;7.64;100.00
35151;BME280;55720;51.972;4.624;2023-04-06T11:44:02;100652.66;;;7.76;100.00
35151;BME280;55720;51.972;4.624;2023-04-06T11:46:32;100642.22;;;7.87;100.00
35151;BME280;55720;51.972;4.624;2023-04-06T11:48:59;100645.59;;;7.92;100.00
35151;BME280;55720;51.972;4.624;2023-04-06T11:51:26;100618.75;;;7.77;100.00
35151;BME280;55720;51.972;4.624;2023-04-06T11:53:52;100600.56;;;7.90;100.00
35151;BME280;55720;51.972;4.624;2023-04-06T11:56:29;100598.19;;;7.88;100.00
35151;BME280;55720;51.972;4.624;2023-04-06T11:58:56;100604.88;;;7.65;100.00
35151;BME280;55720;51.972;4.624;2023-04-06T12:01:23;100602.91;;;7.57;100.00
35151;BME280;55720;51.972;4.624;2023-04-06T12:03:49;100600.22;;;7.66;100.00
35151;BME280;55720;51.972;4.624;2023-04-06T12:06:15;100600.22;;;7.74;100.00
35151;BME280;55720;51.972;4.624;2023-04-06T12:08:40;100617.44;;;7.66;100.00
35151;BME280;55720;51.972;4.624;2023-04-06T12:11:06;100617.59;;;7.70;100.00
35151;BME280;55720;51.972;4.624;2023-04-06T12:13:31;100619.66;;;7.56;100.00
35151;BME280;55720;51.972;4.624;2023-04-06T12:15:57;100627.22;;;7.67;100.00
35151;BME280;55720;51.972;4.624;2023-04-06T12:18:22;100622.38;;;7.64;100.00
35151;BME280;55720;51.972;4.624;2023-04-06T12:20:48;100621.41;;;7.60;100.00
35151;BME280;55720;51.972;4.624;2023-04-06T12:23:13;100633.81;;;7.75;100.00
35151;BME280;55720;51.972;4.624;2023-04-06T12:25:39;100624.00;;;7.65;100.00
35151;BME280;55720;51.972;4.624;2023-04-06T12:28:05;100624.00;;;7.65;100.00
35151;BME280;55720;51.972;4.624;2023-04-06T12:30:31;100615.66;;;7.70;100.00
35151;BME280;55720;51.972;4.624;2023-04-06T12:32:57;100607.81;;;7.77;100.00
35151;BME280;55720;51.972;4.624;2023-04-06T12:35:23;100607.59;;;7.65;100.00
35151;BME280;55720;51.972;4.624;2023-04-06T12:37:48;100600.69;;;7.68;100.00
35151;BME280;55720;51.972;4.624;2023-04-06T12:40:14;100592.84;;;7.66;100.00
35151;BME280;55720;51.972;4.624;2023-04-06T12:42:40;100586.41;;;7.79;100.00
35151;BME280;55720;51.972;4.624;2023-04-06T12:45:07;100565.50;;;7.83;100.00
35151;BME280;55720;51.972;4.624;2023-04-06T12:47:33;100523.84;;;7.78;100.00
35151;BME280;55720;51.972;4.624;2023-04-06T12:49:58;100531.91;;;7.83;100.00
35151;BME280;55720;51.972;4.624;2023-04-06T12:52:24;100527.75;;;7.77;100.00
35151;BME280;55720;51.972;4.624;2023-04-06T12:54:50;100527.25;;;7.66;100.00
35151;BME280;55720;51.972;4.624;2023-04-06T12:57:16;100520.00;;;7.62;100.00
35151;BME280;55720;51.972;4.624;2023-04-06T12:59:45;100534.97;;;7.73;100.00
35151;BME280;55720;51.972;4.624;2023-04-06T13:02:11;100547.66;;;7.52;100.00
35151;BME280;55720;51.972;4.624;2023-04-06T13:04:36;100568.38;;;7.61;100.00
35151;BME280;55720;51.972;4.624;2023-04-06T13:07:02;100588.63;;;7.60;100.00
35151;BME280;55720;51.972;4.624;2023-04-06T13:09:27;100588.78;;;7.64;100.00
35151;BME280;55720;51.972;4.624;2023-04-06T13:11:54;100613.44;;;7.81;100.00
35151;BME280;55720;51.972;4.624;2023-04-06T13:14:19;100629.13;;;7.58;100.00
35151;BME280;55720;51.972;4.624;2023-04-06T13:16:46;100662.25;;;7.65;100.00
35151;BME280;55720;51.972;4.624;2023-04-06T13:19:11;100680.44;;;7.70;100.00
35151;BME280;55720;51.972;4.624;2023-04-06T13:21:37;100700.22;;;7.67;100.00
35151;BME280;55720;51.972;4.624;2023-04-06T13:24:02;100689.72;;;7.60;100.00
35151;BME280;55720;51.972;4.624;2023-04-06T13:26:30;100687.50;;;7.71;100.00
35151;BME280;55720;51.972;4.624;2023-04-06T13:28:55;100678.34;;;7.67;100.00
35151;BME280;55720;51.972;4.624;2023-04-06T13:31:22;100693.25;;;7.61;100.00
35151;BME280;55720;51.972;4.624;2023-04-06T13:33:47;100707.56;;;7.58;100.00
35151;BME280;55720;51.972;4.624;2023-04-06T13:36:13;100703.88;;;7.62;100.00
35151;BME280;55720;51.972;4.624;2023-04-06T13:38:38;100700.72;;;7.77;100.00
35151;BME280;55720;51.972;4.624;2023-04-06T13:41:05;100727.44;;;7.89;100.00
35151;BME280;55720;51.972;4.624;2023-04-06T13:43:31;100739.19;;;7.89;100.00
35151;BME280;55720;51.972;4.624;2023-04-06T13:45:57;100736.91;;;7.83;100.00
35151;BME280;55720;51.972;4.624;2023-04-06T13:48:25;100752.09;;;7.58;100.00
35151;BME280;55720;51.972;4.624;2023-04-06T13:50:51;100755.91;;;7.49;100.00
35151;BME280;55720;51.972;4.624;2023-04-06T13:53:17;100770.88;;;7.60;100.00
35151;BME280;55720;51.972;4.624;2023-04-06T13:55:43;100781.50;;;7.61;100.00
35151;BME280;55720;51.972;4.624;2023-04-06T13:58:09;100769.19;;;7.72;100.00